sensor_id;sensor_type;location;lat;lon;timestamp;P1;durP1;ratioP1;P2;durP2;ratioP2
12880;SDS011;6508;53.786;9.996;2024-03-08T00:00:09;24.93;;;20.83;;
12880;SDS011;6508;53.786;9.996;2024-03-08T00:02:41;29.00;;;21.70;;
12880;SDS011;6508;53.786;9.996;2024-03-08T00:05:09;28.10;;;21.20;;
12880;SDS011;6508;53.786;9.996;2024-03-08T00:07:37;27.20;;;21.37;;
12880;SDS011;6508;53.786;9.996;2024-03-08T00:10:06;30.60;;;22.70;;
12880;SDS011;6508;53.786;9.996;2024-03-08T00:12:39;29.07;;;22.33;;
12880;SDS011;6508;53.786;9.996;2024-03-08T00:15:08;28.57;;;21.80;;
12880;SDS011;6508;53.786;9.996;2024-03-08T00:17:37;27.50;;;22.07;;
12880;SDS011;6508;53.786;9.996;2024-03-08T00:20:07;25.27;;;20.90;;
12880;SDS011;6508;53.786;9.996;2024-03-08T00:22:36;25.27;;;21.13;;
12880;SDS011;6508;53.786;9.996;2024-03-08T00:25:05;28.33;;;22.37;;
12880;SDS011;6508;53.786;9.996;2024-03-08T00:27:35;29.90;;;21.47;;
12880;SDS011;6508;53.786;9.996;2024-03-08T00:30:03;29.67;;;22.20;;
12880;SDS011;6508;53.786;9.996;2024-03-08T00:32:31;27.67;;;21.53;;
12880;SDS011;6508;53.786;9.996;2024-03-08T00:35:00;27.70;;;21.53;;
12880;SDS011;6508;53.786;9.996;2024-03-08T00:37:29;30.33;;;22.17;;
12880;SDS011;6508;53.786;9.996;2024-03-08T00:39:57;28.20;;;22.13;;
12880;SDS011;6508;53.786;9.996;2024-03-08T00:42:25;31.27;;;22.00;;
12880;SDS011;6508;53.786;9.996;2024-03-08T00:44:52;28.53;;;22.93;;
12880;SDS011;6508;53.786;9.996;2024-03-08T00:47:21;25.60;;;20.43;;
12880;SDS011;6508;53.786;9.996;2024-03-08T00:49:48;28.07;;;20.93;;
12880;SDS011;6508;53.786;9.996;2024-03-08T00:52:16;30.07;;;21.93;;
12880;SDS011;6508;53.786;9.996;2024-03-08T00:54:46;26.87;;;21.60;;
12880;SDS011;6508;53.786;9.996;2024-03-08T00:57:13;25.83;;;21.33;;
12880;SDS011;6508;53.786;9.996;2024-03-08T00:59:41;30.63;;;22.23;;
12880;SDS011;6508;53.786;9.996;2024-03-08T01:02:09;27.93;;;22.17;;
12880;SDS011;6508;53.786;9.996;2024-03-08T01:04:38;28.67;;;21.10;;
12880;SDS011;6508;53.786;9.996;2024-03-08T01:07:05;30.17;;;21.60;;
12880;SDS011;6508;53.786;9.996;2024-03-08T01:09:34;27.73;;;20.70;;
12880;SDS011;6508;53.786;9.996;2024-03-08T01:12:04;24.73;;;20.90;;
12880;SDS011;6508;53.786;9.996;2024-03-08T01:14:33;30.57;;;21.40;;
12880;SDS011;6508;53.786;9.996;2024-03-08T01:17:01;26.27;;;21.07;;
12880;SDS011;6508;53.786;9.996;2024-03-08T01:19:29;27.13;;;19.90;;
12880;SDS011;6508;53.786;9.996;2024-03-08T01:21:58;29.83;;;21.53;;
12880;SDS011;6508;53.786;9.996;2024-03-08T01:24:27;29.47;;;22.93;;
12880;SDS011;6508;53.786;9.996;2024-03-08T01:26:54;34.53;;;25.97;;
12880;SDS011;6508;53.786;9.996;2024-03-08T01:29:23;31.10;;;22.40;;
12880;SDS011;6508;53.786;9.996;2024-03-08T01:31:51;29.70;;;21.43;;
12880;SDS011;6508;53.786;9.996;2024-03-08T01:34:19;28.67;;;21.27;;
12880;SDS011;6508;53.786;9.996;2024-03-08T01:36:47;27.13;;;20.47;;
12880;SDS011;6508;53.786;9.996;2024-03-08T01:39:15;30.33;;;21.27;;
12880;SDS011;6508;53.786;9.996;2024-03-08T01:41:43;25.27;;;19.70;;
12880;SDS011;6508;53.786;9.996;2024-03-08T01:44:11;29.57;;;21.03;;
12880;SDS011;6508;53.786;9.996;2024-03-08T01:46:43;28.97;;;20.60;;
12880;SDS011;6508;53.786;9.996;2024-03-08T01:49:11;26.77;;;20.77;;
12880;SDS011;6508;53.786;9.996;2024-03-08T01:51:40;29.07;;;20.50;;
12880;SDS011;6508;53.786;9.996;2024-03-08T01:54:08;27.13;;;19.90;;
12880;SDS011;6508;53.786;9.996;2024-03-08T01:56:37;29.57;;;21.17;;
12880;SDS011;6508;53.786;9.996;2024-03-08T01:59:05;29.73;;;21.70;;
12880;SDS011;6508;53.786;9.996;2024-03-08T02:01:34;25.27;;;20.60;;
12880;SDS011;6508;53.786;9.996;2024-03-08T02:04:03;29.30;;;21.37;;
12880;SDS011;6508;53.786;9.996;2024-03-08T02:06:32;31.17;;;21.40;;
12880;SDS011;6508;53.786;9.996;2024-03-08T02:09:00;31.70;;;21.83;;
12880;SDS011;6508;53.786;9.996;2024-03-08T02:11:32;29.93;;;20.73;;
12880;SDS011;6508;53.786;9.996;2024-03-08T02:14:00;35.10;;;20.80;;
12880;SDS011;6508;53.786;9.996;2024-03-08T02:16:27;30.07;;;21.40;;
12880;SDS011;6508;53.786;9.996;2024-03-08T02:18:55;30.03;;;21.57;;
12880;SDS011;6508;53.786;9.996;2024-03-08T02:21:24;28.70;;;20.70;;
12880;SDS011;6508;53.786;9.996;2024-03-08T02:23:53;31.83;;;22.43;;
12880;SDS011;6508;53.786;9.996;2024-03-08T02:26:21;28.93;;;21.00;;
12880;SDS011;6508;53.786;9.996;2024-03-08T02:28:49;28.53;;;20.47;;
12880;SDS011;6508;53.786;9.996;2024-03-08T02:31:17;32.97;;;22.20;;
12880;SDS011;6508;53.786;9.996;2024-03-08T02:33:44;29.77;;;21.83;;
12880;SDS011;6508;53.786;9.996;2024-03-08T02:36:14;30.17;;;22.23;;
12880;SDS011;6508;53.786;9.996;2024-03-08T02:38:44;27.90;;;21.37;;
12880;SDS011;6508;53.786;9.996;2024-03-08T02:41:12;30.90;;;21.97;;
12880;SDS011;6508;53.786;9.996;2024-03-08T02:43:39;31.23;;;21.40;;
12880;SDS011;6508;53.786;9.996;2024-03-08T02:46:07;34.13;;;22.70;;
12880;SDS011;6508;53.786;9.996;2024-03-08T02:48:36;32.87;;;22.60;;
12880;SDS011;6508;53.786;9.996;2024-03-08T02:51:04;32.37;;;22.40;;
12880;SDS011;6508;53.786;9.996;2024-03-08T02:53:32;32.37;;;21.87;;
12880;SDS011;6508;53.786;9.996;2024-03-08T02:56:01;29.80;;;21.43;;
12880;SDS011;6508;53.786;9.996;2024-03-08T02:58:28;32.60;;;22.47;;
12880;SDS011;6508;53.786;9.996;2024-03-08T03:00:56;30.67;;;20.77;;
12880;SDS011;6508;53.786;9.996;2024-03-08T03:03:24;33.63;;;23.13;;
12880;SDS011;6508;53.786;9.996;2024-03-08T03:05:53;30.07;;;21.50;;
12880;SDS011;6508;53.786;9.996;2024-03-08T03:08:22;31.27;;;22.07;;
12880;SDS011;6508;53.786;9.996;2024-03-08T03:10:51;33.03;;;21.90;;
12880;SDS011;6508;53.786;9.996;2024-03-08T03:13:21;35.20;;;22.83;;
12880;SDS011;6508;53.786;9.996;2024-03-08T03:15:48;34.53;;;23.10;;
12880;SDS011;6508;53.786;9.996;2024-03-08T03:18:16;35.80;;;22.93;;
12880;SDS011;6508;53.786;9.996;2024-03-08T03:20:48;33.20;;;21.53;;
12880;SDS011;6508;53.786;9.996;2024-03-08T03:23:15;32.07;;;22.03;;
12880;SDS011;6508;53.786;9.996;2024-03-08T03:25:47;36.50;;;22.17;;
12880;SDS011;6508;53.786;9.996;2024-03-08T03:28:15;31.63;;;21.37;;
12880;SDS011;6508;53.786;9.996;2024-03-08T03:30:46;32.03;;;21.23;;
12880;SDS011;6508;53.786;9.996;2024-03-08T03:33:13;30.60;;;21.63;;
12880;SDS011;6508;53.786;9.996;2024-03-08T03:35:43;33.00;;;22.43;;
12880;SDS011;6508;53.786;9.996;2024-03-08T03:38:11;32.93;;;21.07;;
12880;SDS011;6508;53.786;9.996;2024-03-08T03:40:41;33.53;;;21.27;;
12880;SDS011;6508;53.786;9.996;2024-03-08T03:43:08;33.53;;;22.20;;
12880;SDS011;6508;53.786;9.996;2024-03-08T03:45:39;33.17;;;21.27;;
12880;SDS011;6508;53.786;9.996;2024-03-08T03:48:09;37.93;;;22.07;;
12880;SDS011;6508;53.786;9.996;2024-03-08T03:50:38;37.03;;;22.63;;
12880;SDS011;6508;53.786;9.996;2024-03-08T03:53:07;35.27;;;22.07;;
12880;SDS011;6508;53.786;9.996;2024-03-08T03:55:37;39.10;;;22.30;;
12880;SDS011;6508;53.786;9.996;2024-03-08T03:58:07;34.53;;;22.70;;
12880;SDS011;6508;53.786;9.996;2024-03-08T04:00:37;39.23;;;24.03;;
12880;SDS011;6508;53.786;9.996;2024-03-08T04:03:04;38.97;;;23.30;;
12880;SDS011;6508;53.786;9.996;2024-03-08T04:05:34;36.10;;;24.07;;
12880;SDS011;6508;53.786;9.996;2024-03-08T04:08:02;41.70;;;24.37;;
12880;SDS011;6508;53.786;9.996;2024-03-08T04:10:30;36.33;;;22.90;;
12880;SDS011;6508;53.786;9.996;2024-03-08T04:12:58;38.43;;;24.33;;
12880;SDS011;6508;53.786;9.996;2024-03-08T04:15:26;39.23;;;24.20;;
12880;SDS011;6508;53.786;9.996;2024-03-08T04:17:54;36.83;;;23.83;;
12880;SDS011;6508;53.786;9.996;2024-03-08T04:20:22;38.13;;;23.43;;
12880;SDS011;6508;53.786;9.996;2024-03-08T04:22:51;36.77;;;23.20;;
12880;SDS011;6508;53.786;9.996;2024-03-08T04:25:19;37.43;;;23.57;;
12880;SDS011;6508;53.786;9.996;2024-03-08T04:27:47;38.27;;;23.80;;
12880;SDS011;6508;53.786;9.996;2024-03-08T04:30:15;33.80;;;22.60;;
12880;SDS011;6508;53.786;9.996;2024-03-08T04:32:43;37.33;;;22.63;;
12880;SDS011;6508;53.786;9.996;2024-03-08T04:35:11;37.47;;;23.50;;
12880;SDS011;6508;53.786;9.996;2024-03-08T04:37:39;34.93;;;21.73;;
12880;SDS011;6508;53.786;9.996;2024-03-08T04:40:09;37.80;;;22.13;;
12880;SDS011;6508;53.786;9.996;2024-03-08T04:42:38;39.60;;;23.70;;
12880;SDS011;6508;53.786;9.996;2024-03-08T04:45:06;37.50;;;22.20;;
12880;SDS011;6508;53.786;9.996;2024-03-08T04:47:34;37.87;;;21.73;;
12880;SDS011;6508;53.786;9.996;2024-03-08T04:50:04;36.47;;;22.90;;
12880;SDS011;6508;53.786;9.996;2024-03-08T04:52:32;35.60;;;21.93;;
12880;SDS011;6508;53.786;9.996;2024-03-08T04:55:00;39.53;;;23.30;;
12880;SDS011;6508;53.786;9.996;2024-03-08T04:57:29;36.87;;;22.70;;
12880;SDS011;6508;53.786;9.996;2024-03-08T04:59:57;38.13;;;22.90;;
12880;SDS011;6508;53.786;9.996;2024-03-08T05:02:25;39.97;;;23.67;;
12880;SDS011;6508;53.786;9.996;2024-03-08T05:04:53;41.57;;;23.60;;
12880;SDS011;6508;53.786;9.996;2024-03-08T05:07:22;42.30;;;24.87;;
12880;SDS011;6508;53.786;9.996;2024-03-08T05:09:50;39.07;;;23.93;;
12880;SDS011;6508;53.786;9.996;2024-03-08T05:12:18;37.43;;;23.70;;
12880;SDS011;6508;53.786;9.996;2024-03-08T05:14:48;41.67;;;24.30;;
12880;SDS011;6508;53.786;9.996;2024-03-08T05:17:16;40.73;;;22.97;;
12880;SDS011;6508;53.786;9.996;2024-03-08T05:19:45;38.10;;;22.37;;
12880;SDS011;6508;53.786;9.996;2024-03-08T05:22:13;44.97;;;26.10;;
12880;SDS011;6508;53.786;9.996;2024-03-08T05:24:41;40.17;;;23.83;;
12880;SDS011;6508;53.786;9.996;2024-03-08T05:27:09;44.13;;;25.20;;
12880;SDS011;6508;53.786;9.996;2024-03-08T05:29:36;43.37;;;25.37;;
12880;SDS011;6508;53.786;9.996;2024-03-08T05:32:06;40.50;;;24.33;;
12880;SDS011;6508;53.786;9.996;2024-03-08T05:34:34;46.27;;;25.03;;
12880;SDS011;6508;53.786;9.996;2024-03-08T05:37:02;42.23;;;23.93;;
12880;SDS011;6508;53.786;9.996;2024-03-08T05:39:30;41.40;;;24.70;;
12880;SDS011;6508;53.786;9.996;2024-03-08T05:41:57;41.80;;;25.87;;
12880;SDS011;6508;53.786;9.996;2024-03-08T05:44:26;43.70;;;27.27;;
12880;SDS011;6508;53.786;9.996;2024-03-08T05:46:55;48.90;;;26.53;;
12880;SDS011;6508;53.786;9.996;2024-03-08T05:49:24;43.80;;;26.53;;
12880;SDS011;6508;53.786;9.996;2024-03-08T05:51:52;40.90;;;25.83;;
12880;SDS011;6508;53.786;9.996;2024-03-08T05:54:20;43.27;;;25.97;;
12880;SDS011;6508;53.786;9.996;2024-03-08T05:56:51;40.80;;;27.40;;
12880;SDS011;6508;53.786;9.996;2024-03-08T05:59:19;47.73;;;29.23;;
12880;SDS011;6508;53.786;9.996;2024-03-08T06:01:49;74.60;;;47.03;;
12880;SDS011;6508;53.786;9.996;2024-03-08T06:04:17;59.80;;;41.67;;
12880;SDS011;6508;53.786;9.996;2024-03-08T06:06:46;67.23;;;48.00;;
12880;SDS011;6508;53.786;9.996;2024-03-08T06:09:18;54.87;;;35.43;;
12880;SDS011;6508;53.786;9.996;2024-03-08T06:11:50;60.77;;;40.27;;
12880;SDS011;6508;53.786;9.996;2024-03-08T06:14:18;53.90;;;33.57;;
12880;SDS011;6508;53.786;9.996;2024-03-08T06:16:46;47.17;;;29.47;;
12880;SDS011;6508;53.786;9.996;2024-03-08T06:19:16;49.73;;;30.00;;
12880;SDS011;6508;53.786;9.996;2024-03-08T06:21:44;53.63;;;33.00;;
12880;SDS011;6508;53.786;9.996;2024-03-08T06:24:13;56.63;;;34.67;;
12880;SDS011;6508;53.786;9.996;2024-03-08T06:26:42;76.03;;;53.40;;
12880;SDS011;6508;53.786;9.996;2024-03-08T06:29:10;246.63;;;122.90;;
12880;SDS011;6508;53.786;9.996;2024-03-08T06:31:39;89.83;;;54.53;;
12880;SDS011;6508;53.786;9.996;2024-03-08T06:34:07;60.83;;;36.57;;
12880;SDS011;6508;53.786;9.996;2024-03-08T06:36:36;59.67;;;36.00;;
12880;SDS011;6508;53.786;9.996;2024-03-08T06:39:04;50.53;;;30.73;;
12880;SDS011;6508;53.786;9.996;2024-03-08T06:41:38;64.83;;;35.00;;
12880;SDS011;6508;53.786;9.996;2024-03-08T06:44:06;56.63;;;33.70;;
12880;SDS011;6508;53.786;9.996;2024-03-08T06:46:35;82.20;;;50.53;;
12880;SDS011;6508;53.786;9.996;2024-03-08T06:49:03;67.33;;;39.10;;
12880;SDS011;6508;53.786;9.996;2024-03-08T06:51:31;61.40;;;36.07;;
12880;SDS011;6508;53.786;9.996;2024-03-08T06:53:59;55.13;;;30.63;;
12880;SDS011;6508;53.786;9.996;2024-03-08T06:56:27;63.97;;;37.53;;
12880;SDS011;6508;53.786;9.996;2024-03-08T06:58:57;58.80;;;35.43;;
12880;SDS011;6508;53.786;9.996;2024-03-08T07:01:25;58.57;;;34.07;;
12880;SDS011;6508;53.786;9.996;2024-03-08T07:03:52;71.53;;;40.40;;
12880;SDS011;6508;53.786;9.996;2024-03-08T07:06:22;62.03;;;35.53;;
12880;SDS011;6508;53.786;9.996;2024-03-08T07:08:50;112.57;;;64.17;;
12880;SDS011;6508;53.786;9.996;2024-03-08T07:11:18;65.87;;;37.13;;
12880;SDS011;6508;53.786;9.996;2024-03-08T07:13:46;62.07;;;36.20;;
12880;SDS011;6508;53.786;9.996;2024-03-08T07:16:15;73.43;;;42.20;;
12880;SDS011;6508;53.786;9.996;2024-03-08T07:18:42;51.43;;;30.23;;
12880;SDS011;6508;53.786;9.996;2024-03-08T07:21:11;51.33;;;29.50;;
12880;SDS011;6508;53.786;9.996;2024-03-08T07:23:39;54.67;;;32.33;;
12880;SDS011;6508;53.786;9.996;2024-03-08T07:26:29;48.43;;;29.20;;
12880;SDS011;6508;53.786;9.996;2024-03-08T07:28:58;48.27;;;28.57;;
12880;SDS011;6508;53.786;9.996;2024-03-08T07:31:28;50.43;;;29.10;;
12880;SDS011;6508;53.786;9.996;2024-03-08T07:34:11;52.97;;;28.83;;
12880;SDS011;6508;53.786;9.996;2024-03-08T07:36:39;50.07;;;29.20;;
12880;SDS011;6508;53.786;9.996;2024-03-08T07:39:07;47.17;;;28.83;;
12880;SDS011;6508;53.786;9.996;2024-03-08T07:41:38;51.83;;;29.13;;
12880;SDS011;6508;53.786;9.996;2024-03-08T07:44:06;51.03;;;29.77;;
12880;SDS011;6508;53.786;9.996;2024-03-08T07:46:35;47.47;;;27.37;;
12880;SDS011;6508;53.786;9.996;2024-03-08T07:49:03;48.80;;;28.23;;
12880;SDS011;6508;53.786;9.996;2024-03-08T07:51:31;54.17;;;29.17;;
12880;SDS011;6508;53.786;9.996;2024-03-08T07:54:01;44.57;;;27.13;;
12880;SDS011;6508;53.786;9.996;2024-03-08T07:56:31;47.17;;;28.67;;
12880;SDS011;6508;53.786;9.996;2024-03-08T07:58:58;44.73;;;28.40;;
12880;SDS011;6508;53.786;9.996;2024-03-08T08:01:26;46.50;;;28.30;;
12880;SDS011;6508;53.786;9.996;2024-03-08T08:03:55;43.33;;;28.07;;
12880;SDS011;6508;53.786;9.996;2024-03-08T08:06:24;44.77;;;26.53;;
12880;SDS011;6508;53.786;9.996;2024-03-08T08:08:52;41.87;;;26.40;;
12880;SDS011;6508;53.786;9.996;2024-03-08T08:11:19;40.70;;;26.93;;
12880;SDS011;6508;53.786;9.996;2024-03-08T08:13:47;43.37;;;28.20;;
12880;SDS011;6508;53.786;9.996;2024-03-08T08:16:15;43.87;;;27.97;;
12880;SDS011;6508;53.786;9.996;2024-03-08T08:18:43;46.63;;;28.07;;
12880;SDS011;6508;53.786;9.996;2024-03-08T08:21:14;42.93;;;28.13;;
12880;SDS011;6508;53.786;9.996;2024-03-08T08:23:41;44.07;;;28.37;;
12880;SDS011;6508;53.786;9.996;2024-03-08T08:26:09;44.00;;;28.17;;
12880;SDS011;6508;53.786;9.996;2024-03-08T08:28:37;42.83;;;27.60;;
12880;SDS011;6508;53.786;9.996;2024-03-08T08:31:08;41.87;;;28.23;;
12880;SDS011;6508;53.786;9.996;2024-03-08T08:33:35;42.67;;;26.63;;
12880;SDS011;6508;53.786;9.996;2024-03-08T08:36:03;36.83;;;25.90;;
12880;SDS011;6508;53.786;9.996;2024-03-08T08:38:32;37.03;;;25.20;;
12880;SDS011;6508;53.786;9.996;2024-03-08T08:41:00;38.67;;;26.53;;
12880;SDS011;6508;53.786;9.996;2024-03-08T08:43:29;38.17;;;26.33;;
12880;SDS011;6508;53.786;9.996;2024-03-08T08:45:56;38.00;;;27.53;;
12880;SDS011;6508;53.786;9.996;2024-03-08T08:48:24;37.37;;;25.70;;
12880;SDS011;6508;53.786;9.996;2024-03-08T08:50:53;39.47;;;26.93;;
12880;SDS011;6508;53.786;9.996;2024-03-08T08:53:21;37.57;;;24.33;;
12880;SDS011;6508;53.786;9.996;2024-03-08T08:55:53;36.73;;;26.07;;
12880;SDS011;6508;53.786;9.996;2024-03-08T08:58:21;35.37;;;25.37;;
12880;SDS011;6508;53.786;9.996;2024-03-08T09:00:50;38.10;;;25.97;;
12880;SDS011;6508;53.786;9.996;2024-03-08T09:03:18;43.63;;;24.40;;
12880;SDS011;6508;53.786;9.996;2024-03-08T09:05:46;41.33;;;25.37;;
12880;SDS011;6508;53.786;9.996;2024-03-08T09:08:14;38.63;;;24.73;;
12880;SDS011;6508;53.786;9.996;2024-03-08T09:10:42;32.70;;;24.83;;
12880;SDS011;6508;53.786;9.996;2024-03-08T09:13:12;33.15;;;23.20;;
12880;SDS011;6508;53.786;9.996;2024-03-08T09:15:53;37.67;;;24.90;;
12880;SDS011;6508;53.786;9.996;2024-03-08T09:18:21;32.30;;;24.50;;
12880;SDS011;6508;53.786;9.996;2024-03-08T09:20:50;30.98;;;23.65;;
12880;SDS011;6508;53.786;9.996;2024-03-08T09:23:20;32.33;;;23.10;;
12880;SDS011;6508;53.786;9.996;2024-03-08T09:25:48;27.48;;;20.05;;
12880;SDS011;6508;53.786;9.996;2024-03-08T09:28:17;29.25;;;21.15;;
12880;SDS011;6508;53.786;9.996;2024-03-08T09:30:45;27.20;;;18.65;;
12880;SDS011;6508;53.786;9.996;2024-03-08T09:33:25;31.58;;;21.10;;
12880;SDS011;6508;53.786;9.996;2024-03-08T09:35:53;24.77;;;18.65;;
12880;SDS011;6508;53.786;9.996;2024-03-08T09:38:21;25.85;;;17.95;;
12880;SDS011;6508;53.786;9.996;2024-03-08T09:40:49;26.20;;;17.52;;
12880;SDS011;6508;53.786;9.996;2024-03-08T09:43:18;24.92;;;17.13;;
12880;SDS011;6508;53.786;9.996;2024-03-08T09:45:48;25.73;;;18.58;;
12880;SDS011;6508;53.786;9.996;2024-03-08T09:48:16;25.85;;;18.92;;
12880;SDS011;6508;53.786;9.996;2024-03-08T09:50:47;25.38;;;17.92;;
12880;SDS011;6508;53.786;9.996;2024-03-08T09:53:15;23.58;;;17.30;;
12880;SDS011;6508;53.786;9.996;2024-03-08T09:55:43;24.25;;;17.30;;
12880;SDS011;6508;53.786;9.996;2024-03-08T09:58:12;22.23;;;13.50;;
12880;SDS011;6508;53.786;9.996;2024-03-08T10:01:04;23.98;;;17.75;;
12880;SDS011;6508;53.786;9.996;2024-03-08T10:03:33;23.55;;;17.30;;
12880;SDS011;6508;53.786;9.996;2024-03-08T10:06:02;24.00;;;16.20;;
12880;SDS011;6508;53.786;9.996;2024-03-08T10:08:30;21.63;;;15.57;;
12880;SDS011;6508;53.786;9.996;2024-03-08T10:10:58;24.52;;;17.02;;
12880;SDS011;6508;53.786;9.996;2024-03-08T10:13:26;20.73;;;15.75;;
12880;SDS011;6508;53.786;9.996;2024-03-08T10:15:54;21.48;;;15.93;;
12880;SDS011;6508;53.786;9.996;2024-03-08T10:18:24;23.73;;;15.82;;
12880;SDS011;6508;53.786;9.996;2024-03-08T10:21:01;23.80;;;14.82;;
12880;SDS011;6508;53.786;9.996;2024-03-08T10:23:30;21.60;;;15.00;;
12880;SDS011;6508;53.786;9.996;2024-03-08T10:26:08;22.40;;;15.93;;
12880;SDS011;6508;53.786;9.996;2024-03-08T10:28:36;24.00;;;15.80;;
12880;SDS011;6508;53.786;9.996;2024-03-08T10:31:04;22.77;;;16.25;;
12880;SDS011;6508;53.786;9.996;2024-03-08T10:33:33;20.95;;;15.75;;
12880;SDS011;6508;53.786;9.996;2024-03-08T10:36:01;20.15;;;15.15;;
12880;SDS011;6508;53.786;9.996;2024-03-08T10:38:30;21.42;;;15.10;;
12880;SDS011;6508;53.786;9.996;2024-03-08T10:40:59;19.15;;;13.52;;
12880;SDS011;6508;53.786;9.996;2024-03-08T10:43:27;16.45;;;13.20;;
12880;SDS011;6508;53.786;9.996;2024-03-08T10:45:59;19.85;;;14.95;;
12880;SDS011;6508;53.786;9.996;2024-03-08T10:48:29;19.42;;;14.73;;
12880;SDS011;6508;53.786;9.996;2024-03-08T10:51:06;20.10;;;15.25;;
12880;SDS011;6508;53.786;9.996;2024-03-08T10:53:37;19.25;;;14.68;;
12880;SDS011;6508;53.786;9.996;2024-03-08T10:56:08;20.70;;;15.23;;
12880;SDS011;6508;53.786;9.996;2024-03-08T10:58:36;21.15;;;14.82;;
12880;SDS011;6508;53.786;9.996;2024-03-08T11:01:05;20.85;;;15.35;;
12880;SDS011;6508;53.786;9.996;2024-03-08T11:03:43;22.77;;;15.93;;
12880;SDS011;6508;53.786;9.996;2024-03-08T11:06:14;21.58;;;15.63;;
12880;SDS011;6508;53.786;9.996;2024-03-08T11:08:43;23.15;;;15.18;;
12880;SDS011;6508;53.786;9.996;2024-03-08T11:11:23;22.10;;;15.15;;
12880;SDS011;6508;53.786;9.996;2024-03-08T11:13:58;21.85;;;14.32;;
12880;SDS011;6508;53.786;9.996;2024-03-08T11:16:39;20.73;;;14.60;;
12880;SDS011;6508;53.786;9.996;2024-03-08T11:19:26;19.42;;;14.32;;
12880;SDS011;6508;53.786;9.996;2024-03-08T11:22:03;17.60;;;13.95;;
12880;SDS011;6508;53.786;9.996;2024-03-08T11:24:37;19.98;;;15.20;;
12880;SDS011;6508;53.786;9.996;2024-03-08T11:27:07;18.42;;;14.35;;
12880;SDS011;6508;53.786;9.996;2024-03-08T11:29:36;18.85;;;13.50;;
12880;SDS011;6508;53.786;9.996;2024-03-08T11:32:07;19.77;;;14.82;;
12880;SDS011;6508;53.786;9.996;2024-03-08T11:34:35;21.17;;;14.43;;
12880;SDS011;6508;53.786;9.996;2024-03-08T11:37:05;23.92;;;13.35;;
12880;SDS011;6508;53.786;9.996;2024-03-08T11:39:36;23.45;;;15.10;;
12880;SDS011;6508;53.786;9.996;2024-03-08T11:42:04;23.40;;;15.15;;
12880;SDS011;6508;53.786;9.996;2024-03-08T11:44:33;19.90;;;15.20;;
12880;SDS011;6508;53.786;9.996;2024-03-08T11:47:02;18.45;;;13.98;;
12880;SDS011;6508;53.786;9.996;2024-03-08T11:49:32;20.08;;;14.25;;
12880;SDS011;6508;53.786;9.996;2024-03-08T11:52:01;18.98;;;13.77;;
12880;SDS011;6508;53.786;9.996;2024-03-08T11:54:30;17.85;;;14.40;;
12880;SDS011;6508;53.786;9.996;2024-03-08T11:56:58;18.42;;;14.18;;
12880;SDS011;6508;53.786;9.996;2024-03-08T11:59:27;21.38;;;14.82;;
12880;SDS011;6508;53.786;9.996;2024-03-08T12:01:59;23.17;;;14.73;;
12880;SDS011;6508;53.786;9.996;2024-03-08T12:04:28;18.38;;;14.70;;
12880;SDS011;6508;53.786;9.996;2024-03-08T12:06:59;20.33;;;14.25;;
12880;SDS011;6508;53.786;9.996;2024-03-08T12:09:27;17.40;;;14.48;;
12880;SDS011;6508;53.786;9.996;2024-03-08T12:11:57;21.65;;;14.68;;
12880;SDS011;6508;53.786;9.996;2024-03-08T12:14:26;19.63;;;14.63;;
12880;SDS011;6508;53.786;9.996;2024-03-08T12:16:54;18.98;;;14.73;;
12880;SDS011;6508;53.786;9.996;2024-03-08T12:19:21;19.70;;;14.90;;
12880;SDS011;6508;53.786;9.996;2024-03-08T12:21:50;18.10;;;15.00;;
12880;SDS011;6508;53.786;9.996;2024-03-08T12:24:18;20.00;;;14.95;;
12880;SDS011;6508;53.786;9.996;2024-03-08T12:26:46;17.55;;;14.00;;
12880;SDS011;6508;53.786;9.996;2024-03-08T12:29:17;18.77;;;14.55;;
12880;SDS011;6508;53.786;9.996;2024-03-08T12:31:46;18.75;;;14.30;;
12880;SDS011;6508;53.786;9.996;2024-03-08T12:34:15;17.02;;;14.63;;
12880;SDS011;6508;53.786;9.996;2024-03-08T12:36:46;18.02;;;13.90;;
12880;SDS011;6508;53.786;9.996;2024-03-08T12:39:20;18.70;;;14.65;;
12880;SDS011;6508;53.786;9.996;2024-03-08T12:41:53;18.20;;;14.43;;
12880;SDS011;6508;53.786;9.996;2024-03-08T12:44:24;17.88;;;14.50;;
12880;SDS011;6508;53.786;9.996;2024-03-08T12:46:52;17.77;;;14.75;;
12880;SDS011;6508;53.786;9.996;2024-03-08T12:49:21;18.52;;;14.57;;
12880;SDS011;6508;53.786;9.996;2024-03-08T12:51:49;18.98;;;13.55;;
12880;SDS011;6508;53.786;9.996;2024-03-08T12:54:19;18.77;;;14.30;;
12880;SDS011;6508;53.786;9.996;2024-03-08T12:56:49;21.55;;;15.25;;
12880;SDS011;6508;53.786;9.996;2024-03-08T12:59:19;19.20;;;14.63;;
12880;SDS011;6508;53.786;9.996;2024-03-08T13:01:49;20.52;;;14.55;;
12880;SDS011;6508;53.786;9.996;2024-03-08T13:04:18;18.35;;;15.10;;
12880;SDS011;6508;53.786;9.996;2024-03-08T13:06:47;20.67;;;15.30;;
12880;SDS011;6508;53.786;9.996;2024-03-08T13:09:20;20.75;;;14.40;;
12880;SDS011;6508;53.786;9.996;2024-03-08T13:11:48;19.25;;;14.88;;
12880;SDS011;6508;53.786;9.996;2024-03-08T13:14:16;22.10;;;15.00;;
12880;SDS011;6508;53.786;9.996;2024-03-08T13:16:44;20.40;;;15.52;;
12880;SDS011;6508;53.786;9.996;2024-03-08T13:19:15;22.33;;;14.32;;
12880;SDS011;6508;53.786;9.996;2024-03-08T13:21:43;21.65;;;15.48;;
12880;SDS011;6508;53.786;9.996;2024-03-08T13:24:15;19.55;;;15.30;;
12880;SDS011;6508;53.786;9.996;2024-03-08T13:26:43;22.40;;;16.13;;
12880;SDS011;6508;53.786;9.996;2024-03-08T13:29:12;21.13;;;15.45;;
12880;SDS011;6508;53.786;9.996;2024-03-08T13:31:41;20.08;;;15.23;;
12880;SDS011;6508;53.786;9.996;2024-03-08T13:34:09;23.10;;;15.93;;
12880;SDS011;6508;53.786;9.996;2024-03-08T13:36:39;21.05;;;14.65;;
12880;SDS011;6508;53.786;9.996;2024-03-08T13:39:10;22.13;;;16.58;;
12880;SDS011;6508;53.786;9.996;2024-03-08T13:41:42;19.88;;;15.23;;
12880;SDS011;6508;53.786;9.996;2024-03-08T13:44:10;22.23;;;15.98;;
12880;SDS011;6508;53.786;9.996;2024-03-08T13:46:38;21.05;;;16.73;;
12880;SDS011;6508;53.786;9.996;2024-03-08T13:49:06;23.35;;;16.55;;
12880;SDS011;6508;53.786;9.996;2024-03-08T13:51:36;21.77;;;14.60;;
12880;SDS011;6508;53.786;9.996;2024-03-08T13:54:05;21.05;;;15.90;;
12880;SDS011;6508;53.786;9.996;2024-03-08T13:56:33;20.48;;;16.23;;
12880;SDS011;6508;53.786;9.996;2024-03-08T13:59:01;23.15;;;15.95;;
12880;SDS011;6508;53.786;9.996;2024-03-08T14:01:29;23.20;;;16.63;;
12880;SDS011;6508;53.786;9.996;2024-03-08T14:03:57;21.80;;;15.30;;
12880;SDS011;6508;53.786;9.996;2024-03-08T14:06:26;25.15;;;16.60;;
12880;SDS011;6508;53.786;9.996;2024-03-08T14:08:53;24.90;;;16.45;;
12880;SDS011;6508;53.786;9.996;2024-03-08T14:11:24;20.02;;;15.35;;
12880;SDS011;6508;53.786;9.996;2024-03-08T14:13:52;22.23;;;16.77;;
12880;SDS011;6508;53.786;9.996;2024-03-08T14:16:20;22.38;;;16.63;;
12880;SDS011;6508;53.786;9.996;2024-03-08T14:18:48;22.48;;;15.48;;
12880;SDS011;6508;53.786;9.996;2024-03-08T14:21:16;23.33;;;16.35;;
12880;SDS011;6508;53.786;9.996;2024-03-08T14:23:45;22.63;;;15.73;;
12880;SDS011;6508;53.786;9.996;2024-03-08T14:26:15;20.92;;;16.20;;
12880;SDS011;6508;53.786;9.996;2024-03-08T14:28:44;21.38;;;15.30;;
12880;SDS011;6508;53.786;9.996;2024-03-08T14:31:12;19.80;;;15.43;;
12880;SDS011;6508;53.786;9.996;2024-03-08T14:33:45;21.00;;;15.30;;
12880;SDS011;6508;53.786;9.996;2024-03-08T14:36:15;25.05;;;14.27;;
12880;SDS011;6508;53.786;9.996;2024-03-08T14:38:43;18.55;;;14.35;;
12880;SDS011;6508;53.786;9.996;2024-03-08T14:41:13;19.27;;;15.02;;
12880;SDS011;6508;53.786;9.996;2024-03-08T14:43:42;19.80;;;14.75;;